sensor_id;sensor_type;location;lat;lon;timestamp;temperature;humidity
38604;DHT22;24924;50.054;8.790;2023-08-01T00:01:02;18.30;99.90
38604;DHT22;24924;50.054;8.790;2023-08-01T00:03:28;16.80;99.90
38604;DHT22;24924;50.054;8.790;2023-08-01T00:05:54;17.40;99.90
38604;DHT22;24924;50.054;8.790;2023-08-01T00:08:21;16.70;99.90
38604;DHT22;24924;50.054;8.790;2023-08-01T00:10:47;17.00;99.90
38604;DHT22;24924;50.054;8.790;2023-08-01T00:13:13;15.40;99.90
38604;DHT22;24924;50.054;8.790;2023-08-01T00:18:05;17.30;99.90
38604;DHT22;24924;50.054;8.790;2023-08-01T00:20:31;18.40;99.90
38604;DHT22;24924;50.054;8.790;2023-08-01T00:25:23;17.30;99.90
38604;DHT22;24924;50.054;8.790;2023-08-01T00:27:49;17.20;99.90
38604;DHT22;24924;50.054;8.790;2023-08-01T00:30:16;17.30;99.90
38604;DHT22;24924;50.054;8.790;2023-08-01T00:32:42;17.80;99.90
38604;DHT22;24924;50.054;8.790;2023-08-01T00:37:35;16.90;99.90
38604;DHT22;24924;50.054;8.790;2023-08-01T00:47:20;16.50;99.90
38604;DHT22;24924;50.054;8.790;2023-08-01T00:49:46;17.70;99.90
38604;DHT22;24924;50.054;8.790;2023-08-01T00:52:13;16.20;99.90
38604;DHT22;24924;50.054;8.790;2023-08-01T00:54:40;17.90;99.90
38604;DHT22;24924;50.054;8.790;2023-08-01T00:57:06;18.40;99.90
38604;DHT22;24924;50.054;8.790;2023-08-01T00:59:32;18.50;99.90
38604;DHT22;24924;50.054;8.790;2023-08-01T01:01:59;17.20;99.90
38604;DHT22;24924;50.054;8.790;2023-08-01T01:04:26;15.70;99.90
38604;DHT22;24924;50.054;8.790;2023-08-01T01:07:03;16.50;99.90
38604;DHT22;24924;50.054;8.790;2023-08-01T01:09:31;17.20;99.90
38604;DHT22;24924;50.054;8.790;2023-08-01T01:11:58;17.70;99.90
38604;DHT22;24924;50.054;8.790;2023-08-01T01:14:26;16.80;99.90
38604;DHT22;24924;50.054;8.790;2023-08-01T01:19:19;17.30;99.90
38604;DHT22;24924;50.054;8.790;2023-08-01T01:21:46;17.20;99.90
38604;DHT22;24924;50.054;8.790;2023-08-01T01:24:13;17.00;99.90
38604;DHT22;24924;50.054;8.790;2023-08-01T01:26:41;18.10;99.90
38604;DHT22;24924;50.054;8.790;2023-08-01T01:29:07;17.20;99.90
38604;DHT22;24924;50.054;8.790;2023-08-01T01:31:36;17.10;99.90
38604;DHT22;24924;50.054;8.790;2023-08-01T01:34:03;16.00;99.90
38604;DHT22;24924;50.054;8.790;2023-08-01T01:36:29;17.60;99.90
38604;DHT22;24924;50.054;8.790;2023-08-01T01:38:55;15.60;99.90
38604;DHT22;24924;50.054;8.790;2023-08-01T01:43:48;17.50;99.90
38604;DHT22;24924;50.054;8.790;2023-08-01T01:46:14;17.00;99.90
38604;DHT22;24924;50.054;8.790;2023-08-01T01:48:40;17.60;99.90
38604;DHT22;24924;50.054;8.790;2023-08-01T01:51:08;17.40;99.90
38604;DHT22;24924;50.054;8.790;2023-08-01T01:56:01;18.40;99.90
38604;DHT22;24924;50.054;8.790;2023-08-01T01:58:27;17.30;99.90
38604;DHT22;24924;50.054;8.790;2023-08-01T06:03:01;18.00;99.90
38604;DHT22;24924;50.054;8.790;2023-08-01T06:05:28;17.30;99.90
38604;DHT22;24924;50.054;8.790;2023-08-01T06:15:12;16.30;99.90
38604;DHT22;24924;50.054;8.790;2023-08-01T06:20:05;14.80;99.90
38604;DHT22;24924;50.054;8.790;2023-08-01T06:22:31;17.30;99.90
38604;DHT22;24924;50.054;8.790;2023-08-01T06:24:56;17.10;99.90
38604;DHT22;24924;50.054;8.790;2023-08-01T06:27:22;15.40;99.90
38604;DHT22;24924;50.054;8.790;2023-08-01T06:37:06;16.90;99.90
38604;DHT22;24924;50.054;8.790;2023-08-01T06:39:32;17.00;99.90
38604;DHT22;24924;50.054;8.790;2023-08-01T06:46:50;17.70;99.90
38604;DHT22;24924;50.054;8.790;2023-08-01T06:49:16;17.30;99.90
38604;DHT22;24924;50.054;8.790;2023-08-01T06:56:34;18.60;99.90
38604;DHT22;24924;50.054;8.790;2023-08-01T07:01:26;14.90;99.90
38604;DHT22;24924;50.054;8.790;2023-08-01T07:03:52;15.20;99.90
38604;DHT22;24924;50.054;8.790;2023-08-01T07:08:44;17.20;99.90
38604;DHT22;24924;50.054;8.790;2023-08-01T07:11:09;17.10;99.90
38604;DHT22;24924;50.054;8.790;2023-08-01T07:13:35;16.90;99.90
38604;DHT22;24924;50.054;8.790;2023-08-01T07:16:01;16.80;99.90
38604;DHT22;24924;50.054;8.790;2023-08-01T07:18:27;15.50;99.90
38604;DHT22;24924;50.054;8.790;2023-08-01T07:21:00;15.40;99.90
38604;DHT22;24924;50.054;8.790;2023-08-01T07:23:26;16.10;99.90
38604;DHT22;24924;50.054;8.790;2023-08-01T07:28:19;17.20;99.90
38604;DHT22;24924;50.054;8.790;2023-08-01T07:30:44;16.40;99.90
38604;DHT22;24924;50.054;8.790;2023-08-01T07:33:11;17.00;99.90
38604;DHT22;24924;50.054;8.790;2023-08-01T07:35:36;17.20;99.90
38604;DHT22;24924;50.054;8.790;2023-08-01T07:38:02;17.10;99.90
38604;DHT22;24924;50.054;8.790;2023-08-01T07:45:20;17.20;99.90
38604;DHT22;24924;50.054;8.790;2023-08-01T07:47:46;17.10;99.90
38604;DHT22;24924;50.054;8.790;2023-08-01T07:52:37;16.80;99.90
38604;DHT22;24924;50.054;8.790;2023-08-01T07:55:03;15.90;99.90
38604;DHT22;24924;50.054;8.790;2023-08-01T07:57:29;17.90;99.90
38604;DHT22;24924;50.054;8.790;2023-08-01T07:59:55;17.70;99.90
38604;DHT22;24924;50.054;8.790;2023-08-01T08:02:21;17.30;99.90
38604;DHT22;24924;50.054;8.790;2023-08-01T08:12:05;17.70;99.90
38604;DHT22;24924;50.054;8.790;2023-08-01T08:19:23;19.10;99.90
38604;DHT22;24924;50.054;8.790;2023-08-01T08:21:50;18.60;99.90
38604;DHT22;24924;50.054;8.790;2023-08-01T08:24:16;18.50;99.90
38604;DHT22;24924;50.054;8.790;2023-08-01T08:26:42;18.90;99.90
38604;DHT22;24924;50.054;8.790;2023-08-01T08:29:07;18.90;99.90
38604;DHT22;24924;50.054;8.790;2023-08-01T08:31:34;18.80;99.90
38604;DHT22;24924;50.054;8.790;2023-08-01T08:33:59;19.00;99.90
38604;DHT22;24924;50.054;8.790;2023-08-01T08:36:25;19.30;99.90
38604;DHT22;24924;50.054;8.790;2023-08-01T08:38:51;19.20;99.90
38604;DHT22;24924;50.054;8.790;2023-08-01T08:41:21;18.10;99.90
38604;DHT22;24924;50.054;8.790;2023-08-01T08:43:48;20.10;99.90
38604;DHT22;24924;50.054;8.790;2023-08-01T08:46:15;18.30;99.90
38604;DHT22;24924;50.054;8.790;2023-08-01T08:48:42;19.50;99.90
38604;DHT22;24924;50.054;8.790;2023-08-01T08:51:10;20.10;99.90
38604;DHT22;24924;50.054;8.790;2023-08-01T08:53:36;20.10;99.90
38604;DHT22;24924;50.054;8.790;2023-08-01T08:56:02;20.20;99.90
38604;DHT22;24924;50.054;8.790;2023-08-01T08:58:31;20.00;99.90
38604;DHT22;24924;50.054;8.790;2023-08-01T09:00:59;20.20;99.90
38604;DHT22;24924;50.054;8.790;2023-08-01T09:03:25;20.10;99.90
38604;DHT22;24924;50.054;8.790;2023-08-01T09:06:12;20.00;99.90
38604;DHT22;24924;50.054;8.790;2023-08-01T09:08:40;18.70;99.90
38604;DHT22;24924;50.054;8.790;2023-08-01T09:13:38;20.50;99.90
38604;DHT22;24924;50.054;8.790;2023-08-01T09:16:05;20.60;99.90
38604;DHT22;24924;50.054;8.790;2023-08-01T09:18:31;21.00;99.90
38604;DHT22;24924;50.054;8.790;2023-08-01T09:20:58;21.20;99.90
38604;DHT22;24924;50.054;8.790;2023-08-01T09:23:28;20.50;99.90
38604;DHT22;24924;50.054;8.790;2023-08-01T09:25:53;20.50;99.90
38604;DHT22;24924;50.054;8.790;2023-08-01T09:28:22;20.40;99.90
38604;DHT22;24924;50.054;8.790;2023-08-01T09:30:48;19.80;99.90
38604;DHT22;24924;50.054;8.790;2023-08-01T09:33:14;19.70;99.90
38604;DHT22;24924;50.054;8.790;2023-08-01T09:40:37;20.90;99.90
38604;DHT22;24924;50.054;8.790;2023-08-01T09:45:29;21.10;99.90
38604;DHT22;24924;50.054;8.790;2023-08-01T09:47:55;21.60;99.90
38604;DHT22;24924;50.054;8.790;2023-08-01T09:50:23;21.70;99.90
38604;DHT22;24924;50.054;8.790;2023-08-01T09:52:49;21.60;99.90
38604;DHT22;24924;50.054;8.790;2023-08-01T09:55:47;21.20;99.90
38604;DHT22;24924;50.054;8.790;2023-08-01T09:58:17;21.70;99.90
38604;DHT22;24924;50.054;8.790;2023-08-01T10:00:46;21.70;99.90
38604;DHT22;24924;50.054;8.790;2023-08-01T10:03:12;21.50;99.90
38604;DHT22;24924;50.054;8.790;2023-08-01T10:05:40;20.80;99.90
38604;DHT22;24924;50.054;8.790;2023-08-01T10:08:07;21.40;99.90
38604;DHT22;24924;50.054;8.790;2023-08-01T10:10:33;21.80;99.90
38604;DHT22;24924;50.054;8.790;2023-08-01T10:13:01;21.30;99.90
38604;DHT22;24924;50.054;8.790;2023-08-01T10:15:28;21.70;99.90
38604;DHT22;24924;50.054;8.790;2023-08-01T10:17:54;22.60;99.90
38604;DHT22;24924;50.054;8.790;2023-08-01T10:20:21;22.10;99.90
38604;DHT22;24924;50.054;8.790;2023-08-01T10:22:49;21.60;99.90
38604;DHT22;24924;50.054;8.790;2023-08-01T10:25:16;21.80;99.90
38604;DHT22;24924;50.054;8.790;2023-08-01T10:27:42;21.70;99.90
38604;DHT22;24924;50.054;8.790;2023-08-01T10:30:08;21.80;99.90
38604;DHT22;24924;50.054;8.790;2023-08-01T10:32:37;21.50;99.90
38604;DHT22;24924;50.054;8.790;2023-08-01T10:35:04;21.00;99.90
38604;DHT22;24924;50.054;8.790;2023-08-01T10:37:43;21.90;99.90
38604;DHT22;24924;50.054;8.790;2023-08-01T10:40:10;20.90;99.90
38604;DHT22;24924;50.054;8.790;2023-08-01T10:42:43;21.20;99.90
38604;DHT22;24924;50.054;8.790;2023-08-01T10:45:23;21.20;99.90
38604;DHT22;24924;50.054;8.790;2023-08-01T10:47:50;21.00;99.90
38604;DHT22;24924;50.054;8.790;2023-08-01T10:50:16;21.60;99.90
38604;DHT22;24924;50.054;8.790;2023-08-01T10:52:42;21.80;99.90
38604;DHT22;24924;50.054;8.790;2023-08-01T10:55:09;21.50;99.90
38604;DHT22;24924;50.054;8.790;2023-08-01T10:57:37;22.20;99.90
38604;DHT22;24924;50.054;8.790;2023-08-01T11:00:04;22.30;99.90
38604;DHT22;24924;50.054;8.790;2023-08-01T11:02:35;22.30;99.90
38604;DHT22;24924;50.054;8.790;2023-08-01T11:05:03;21.80;99.90
38604;DHT22;24924;50.054;8.790;2023-08-01T11:07:29;22.30;99.90
38604;DHT22;24924;50.054;8.790;2023-08-01T11:10:21;22.20;99.90
38604;DHT22;24924;50.054;8.790;2023-08-01T11:12:47;22.70;99.90
38604;DHT22;24924;50.054;8.790;2023-08-01T11:15:14;21.90;99.90
38604;DHT22;24924;50.054;8.790;2023-08-01T11:17:41;20.70;99.90
38604;DHT22;24924;50.054;8.790;2023-08-01T11:20:10;21.60;99.90
38604;DHT22;24924;50.054;8.790;2023-08-01T11:22:49;21.50;99.90
38604;DHT22;24924;50.054;8.790;2023-08-01T11:25:15;21.30;99.90
38604;DHT22;24924;50.054;8.790;2023-08-01T11:27:41;21.50;99.90
38604;DHT22;24924;50.054;8.790;2023-08-01T11:32:36;21.30;99.90
38604;DHT22;24924;50.054;8.790;2023-08-01T11:35:02;22.10;99.90
38604;DHT22;24924;50.054;8.790;2023-08-01T11:37:28;21.40;99.90
38604;DHT22;24924;50.054;8.790;2023-08-01T11:39:55;21.30;99.90
38604;DHT22;24924;50.054;8.790;2023-08-01T11:42:21;22.10;99.90
38604;DHT22;24924;50.054;8.790;2023-08-01T11:44:46;21.30;99.90
38604;DHT22;24924;50.054;8.790;2023-08-01T11:47:16;21.10;99.90
38604;DHT22;24924;50.054;8.790;2023-08-01T11:49:49;21.60;99.90
38604;DHT22;24924;50.054;8.790;2023-08-01T11:52:28;22.20;99.90
38604;DHT22;24924;50.054;8.790;2023-08-01T11:54:54;22.40;99.90
38604;DHT22;24924;50.054;8.790;2023-08-01T11:57:23;22.70;99.90
38604;DHT22;24924;50.054;8.790;2023-08-01T11:59:55;23.30;99.90
38604;DHT22;24924;50.054;8.790;2023-08-01T12:02:29;22.60;99.90
38604;DHT22;24924;50.054;8.790;2023-08-01T12:04:55;22.80;99.90
38604;DHT22;24924;50.054;8.790;2023-08-01T12:07:25;23.40;99.90
38604;DHT22;24924;50.054;8.790;2023-08-01T12:10:00;22.90;99.90
38604;DHT22;24924;50.054;8.790;2023-08-01T12:12:27;22.90;99.90
38604;DHT22;24924;50.054;8.790;2023-08-01T12:14:53;23.50;99.90
38604;DHT22;24924;50.054;8.790;2023-08-01T12:17:20;23.60;99.90
38604;DHT22;24924;50.054;8.790;2023-08-01T12:19:46;23.70;99.90
38604;DHT22;24924;50.054;8.790;2023-08-01T12:22:12;23.50;99.90
38604;DHT22;24924;50.054;8.790;2023-08-01T12:27:06;22.80;99.90
38604;DHT22;24924;50.054;8.790;2023-08-01T12:29:32;21.30;99.90
38604;DHT22;24924;50.054;8.790;2023-08-01T12:31:58;21.90;99.90
38604;DHT22;24924;50.054;8.790;2023-08-01T12:39:16;22.70;99.90
38604;DHT22;24924;50.054;8.790;2023-08-01T12:41:42;23.00;99.90
38604;DHT22;24924;50.054;8.790;2023-08-01T12:44:07;22.70;99.90
38604;DHT22;24924;50.054;8.790;2023-08-01T12:46:33;22.60;99.90
38604;DHT22;24924;50.054;8.790;2023-08-01T12:48:59;22.60;99.90
38604;DHT22;24924;50.054;8.790;2023-08-01T12:51:24;22.50;99.90
38604;DHT22;24924;50.054;8.790;2023-08-01T12:53:50;22.70;99.90
38604;DHT22;24924;50.054;8.790;2023-08-01T12:56:16;22.60;99.90
38604;DHT22;24924;50.054;8.790;2023-08-01T12:58:41;22.40;99.90
38604;DHT22;24924;50.054;8.790;2023-08-01T13:01:07;22.10;99.90
38604;DHT22;24924;50.054;8.790;2023-08-01T13:03:33;21.70;99.90
38604;DHT22;24924;50.054;8.790;2023-08-01T13:08:25;21.10;99.90
38604;DHT22;24924;50.054;8.790;2023-08-01T13:10:51;20.60;99.90
38604;DHT22;24924;50.054;8.790;2023-08-01T13:13:17;20.10;99.90
38604;DHT22;24924;50.054;8.790;2023-08-01T13:15:43;20.80;99.90
38604;DHT22;24924;50.054;8.790;2023-08-01T13:18:10;20.70;99.90
38604;DHT22;24924;50.054;8.790;2023-08-01T13:20:35;21.40;99.90
38604;DHT22;24924;50.054;8.790;2023-08-01T13:23:02;22.30;99.90
38604;DHT22;24924;50.054;8.790;2023-08-01T13:25:28;22.10;99.90
38604;DHT22;24924;50.054;8.790;2023-08-01T13:27:54;22.20;99.90
38604;DHT22;24924;50.054;8.790;2023-08-01T13:30:20;22.40;99.90
38604;DHT22;24924;50.054;8.790;2023-08-01T13:32:46;22.60;99.90
38604;DHT22;24924;50.054;8.790;2023-08-01T13:35:12;23.10;99.90
38604;DHT22;24924;50.054;8.790;2023-08-01T13:37:38;23.20;99.90
38604;DHT22;24924;50.054;8.790;2023-08-01T13:40:04;23.80;99.90
38604;DHT22;24924;50.054;8.790;2023-08-01T13:42:30;23.90;99.90
38604;DHT22;24924;50.054;8.790;2023-08-01T13:44:56;24.30;99.90
38604;DHT22;24924;50.054;8.790;2023-08-01T13:47:21;24.40;99.90
38604;DHT22;24924;50.054;8.790;2023-08-01T13:49:47;24.40;99.90
38604;DHT22;24924;50.054;8.790;2023-08-01T13:52:13;24.20;99.90
38604;DHT22;24924;50.054;8.790;2023-08-01T13:54:38;23.70;99.90
38604;DHT22;24924;50.054;8.790;2023-08-01T13:57:05;23.50;99.90
38604;DHT22;24924;50.054;8.790;2023-08-01T13:59:31;22.90;99.90
38604;DHT22;24924;50.054;8.790;2023-08-01T14:01:57;22.50;99.90
38604;DHT22;24924;50.054;8.790;2023-08-01T14:04:22;22.20;99.90
38604;DHT22;24924;50.054;8.790;2023-08-01T14:06:48;22.20;99.90
38604;DHT22;24924;50.054;8.790;2023-08-01T14:09:14;21.70;99.90
38604;DHT22;24924;50.054;8.790;2023-08-01T14:11:40;21.60;99.90
38604;DHT22;24924;50.054;8.790;2023-08-01T14:14:06;21.40;99.90
38604;DHT22;24924;50.054;8.790;2023-08-01T14:16:32;22.00;99.90
38604;DHT22;24924;50.054;8.790;2023-08-01T14:18:58;22.30;99.90
38604;DHT22;24924;50.054;8.790;2023-08-01T14:21:24;22.60;99.90
38604;DHT22;24924;50.054;8.790;2023-08-01T14:23:50;22.50;99.90
38604;DHT22;24924;50.054;8.790;2023-08-01T14:26:16;22.50;99.90
38604;DHT22;24924;50.054;8.790;2023-08-01T14:28:42;22.40;99.90
38604;DHT22;24924;50.054;8.790;2023-08-01T14:31:07;23.00;99.90
38604;DHT22;24924;50.054;8.790;2023-08-01T14:33:34;22.90;99.90
38604;DHT22;24924;50.054;8.790;2023-08-01T14:36:00;23.80;99.90
38604;DHT22;24924;50.054;8.790;2023-08-01T14:38:26;24.20;99.90
38604;DHT22;24924;50.054;8.790;2023-08-01T14:40:52;24.40;99.90
38604;DHT22;24924;50.054;8.790;2023-08-01T14:43:19;24.20;99.90
38604;DHT22;24924;50.054;8.790;2023-08-01T14:45:45;24.00;99.90
38604;DHT22;24924;50.054;8.790;2023-08-01T14:48:10;23.80;99.90
38604;DHT22;24924;50.054;8.790;2023-08-01T14:50:37;23.50;99.90
38604;DHT22;24924;50.054;8.790;2023-08-01T14:53:03;23.10;99.90
38604;DHT22;24924;50.054;8.790;2023-08-01T14:55:30;22.90;99.90
38604;DHT22;24924;50.054;8.790;2023-08-01T14:57:55;22.00;99.90
38604;DHT22;24924;50.054;8.790;2023-08-01T15:00:21;21.60;99.90
38604;DHT22;24924;50.054;8.790;2023-08-01T15:02:47;21.90;99.90
38604;DHT22;24924;50.054;8.790;2023-08-01T15:05:14;21.30;99.90
38604;DHT22;24924;50.054;8.790;2023-08-01T15:07:40;21.00;99.90
38604;DHT22;24924;50.054;8.790;2023-08-01T15:12:32;21.40;99.90
38604;DHT22;24924;50.054;8.790;2023-08-01T15:14:58;20.90;99.90
38604;DHT22;24924;50.054;8.790;2023-08-01T15:17:24;22.00;99.90
38604;DHT22;24924;50.054;8.790;2023-08-01T15:19:50;21.30;99.90
38604;DHT22;24924;50.054;8.790;2023-08-01T15:22:17;20.70;99.90
38604;DHT22;24924;50.054;8.790;2023-08-01T15:24:43;21.40;99.90
38604;DHT22;24924;50.054;8.790;2023-08-01T15:27:09;21.30;99.90
38604;DHT22;24924;50.054;8.790;2023-08-01T15:29:36;21.50;99.90
38604;DHT22;24924;50.054;8.790;2023-08-01T15:32:02;20.90;99.90
38604;DHT22;24924;50.054;8.790;2023-08-01T15:34:28;21.10;99.90
38604;DHT22;24924;50.054;8.790;2023-08-01T15:36:54;20.70;99.90
38604;DHT22;24924;50.054;8.790;2023-08-01T15:39:19;20.80;99.90
38604;DHT22;24924;50.054;8.790;2023-08-01T15:41:46;22.10;99.90
38604;DHT22;24924;50.054;8.790;2023-08-01T15:44:12;22.20;99.90
38604;DHT22;24924;50.054;8.790;2023-08-01T15:46:38;22.00;99.90
38604;DHT22;24924;50.054;8.790;2023-08-01T15:49:04;21.40;99.90
38604;DHT22;24924;50.054;8.790;2023-08-01T15:53:57;20.90;99.90
38604;DHT22;24924;50.054;8.790;2023-08-01T15:56:23;21.80;99.90
38604;DHT22;24924;50.054;8.790;2023-08-01T15:58:49;20.60;99.90
38604;DHT22;24924;50.054;8.790;2023-08-01T16:01:15;20.50;99.90
38604;DHT22;24924;50.054;8.790;2023-08-01T16:03:41;20.60;99.90
38604;DHT22;24924;50.054;8.790;2023-08-01T16:06:07;20.30;99.90
38604;DHT22;24924;50.054;8.790;2023-08-01T16:08:34;20.20;99.90
38604;DHT22;24924;50.054;8.790;2023-08-01T16:18:18;19.30;99.90
38604;DHT22;24924;50.054;8.790;2023-08-01T16:20:45;20.40;99.90
38604;DHT22;24924;50.054;8.790;2023-08-01T16:23:11;19.00;99.90
38604;DHT22;24924;50.054;8.790;2023-08-01T16:25:37;20.20;99.90
38604;DHT22;24924;50.054;8.790;2023-08-01T16:28:03;21.50;99.90
38604;DHT22;24924;50.054;8.790;2023-08-01T16:30:29;20.90;99.90
38604;DHT22;24924;50.054;8.790;2023-08-01T16:32:56;20.60;99.90
38604;DHT22;24924;50.054;8.790;2023-08-01T16:35:21;20.50;99.90
38604;DHT22;24924;50.054;8.790;2023-08-01T16:37:47;21.60;99.90
38604;DHT22;24924;50.054;8.790;2023-08-01T16:40:13;20.70;99.90
38604;DHT22;24924;50.054;8.790;2023-08-01T16:42:39;22.20;99.90
38604;DHT22;24924;50.054;8.790;2023-08-01T16:45:06;21.50;99.90
38604;DHT22;24924;50.054;8.790;2023-08-01T16:47:33;21.10;99.90
38604;DHT22;24924;50.054;8.790;2023-08-01T16:49:59;19.90;99.90
38604;DHT22;24924;50.054;8.790;2023-08-01T16:52:25;20.00;99.90
38604;DHT22;24924;50.054;8.790;2023-08-01T16:54:51;20.70;99.90
38604;DHT22;24924;50.054;8.790;2023-08-01T16:59:44;20.40;99.90
38604;DHT22;24924;50.054;8.790;2023-08-01T17:02:10;20.00;99.90
38604;DHT22;24924;50.054;8.790;2023-08-01T17:04:37;19.20;99.90
38604;DHT22;24924;50.054;8.790;2023-08-01T17:07:02;20.20;99.90
38604;DHT22;24924;50.054;8.790;2023-08-01T17:11:57;20.10;99.90
38604;DHT22;24924;50.054;8.790;2023-08-01T17:14:23;20.30;99.90
38604;DHT22;24924;50.054;8.790;2023-08-01T17:16:49;20.00;99.90
38604;DHT22;24924;50.054;8.790;2023-08-01T17:19:16;20.30;99.90
38604;DHT22;24924;50.054;8.790;2023-08-01T17:21:42;20.60;99.90
38604;DHT22;24924;50.054;8.790;2023-08-01T17:24:11;19.70;99.90
38604;DHT22;24924;50.054;8.790;2023-08-01T17:26:40;19.80;99.90
38604;DHT22;24924;50.054;8.790;2023-08-01T17:29:06;20.00;99.90
38604;DHT22;24924;50.054;8.790;2023-08-01T17:34:03;20.00;99.90
38604;DHT22;24924;50.054;8.790;2023-08-01T17:38:56;19.30;99.90
38604;DHT22;24924;50.054;8.790;2023-08-01T17:41:24;20.60;99.90
38604;DHT22;24924;50.054;8.790;2023-08-01T17:43:50;20.30;99.90
38604;DHT22;24924;50.054;8.790;2023-08-01T17:46:16;19.60;99.90
38604;DHT22;24924;50.054;8.790;2023-08-01T17:48:46;19.90;99.90
38604;DHT22;24924;50.054;8.790;2023-08-01T17:53:38;19.60;99.90
38604;DHT22;24924;50.054;8.790;2023-08-01T17:56:05;19.70;99.90
38604;DHT22;24924;50.054;8.790;2023-08-01T17:58:32;19.90;99.90
38604;DHT22;24924;50.054;8.790;2023-08-01T18:00:58;19.50;99.90
38604;DHT22;24924;50.054;8.790;2023-08-01T18:03:24;19.90;99.90
38604;DHT22;24924;50.054;8.790;2023-08-01T18:05:50;19.50;99.90
38604;DHT22;24924;50.054;8.790;2023-08-01T18:08:16;19.30;99.90
38604;DHT22;24924;50.054;8.790;2023-08-01T18:10:42;20.40;99.90
38604;DHT22;24924;50.054;8.790;2023-08-01T18:13:08;19.60;99.90
38604;DHT22;24924;50.054;8.790;2023-08-01T18:15:38;18.30;99.90
38604;DHT22;24924;50.054;8.790;2023-08-01T18:18:05;19.80;99.90
38604;DHT22;24924;50.054;8.790;2023-08-01T18:22:57;19.00;99.90
38604;DHT22;24924;50.054;8.790;2023-08-01T18:32:41;20.00;99.90
38604;DHT22;24924;50.054;8.790;2023-08-01T18:40:00;19.50;99.90
38604;DHT22;24924;50.054;8.790;2023-08-01T18:42:26;19.30;99.90
38604;DHT22;24924;50.054;8.790;2023-08-01T18:44:52;17.60;99.90
38604;DHT22;24924;50.054;8.790;2023-08-01T18:49:44;18.80;99.90
38604;DHT22;24924;50.054;8.790;2023-08-01T18:52:15;17.30;99.90
38604;DHT22;24924;50.054;8.790;2023-08-01T18:57:08;18.70;99.90
38604;DHT22;24924;50.054;8.790;2023-08-01T18:59:33;18.50;99.90
38604;DHT22;24924;50.054;8.790;2023-08-01T19:01:59;19.00;99.90
38604;DHT22;24924;50.054;8.790;2023-08-01T19:04:29;18.90;99.90
38604;DHT22;24924;50.054;8.790;2023-08-01T19:19:07;17.60;99.90
38604;DHT22;24924;50.054;8.790;2023-08-01T19:21:33;18.30;99.90
38604;DHT22;24924;50.054;8.790;2023-08-01T19:23:59;17.30;99.90
38604;DHT22;24924;50.054;8.790;2023-08-01T19:26:24;16.70;99.90
38604;DHT22;24924;50.054;8.790;2023-08-01T19:28:50;18.60;99.90
38604;DHT22;24924;50.054;8.790;2023-08-01T19:31:16;18.20;99.90
38604;DHT22;24924;50.054;8.790;2023-08-01T19:38:35;18.60;99.90
38604;DHT22;24924;50.054;8.790;2023-08-01T19:41:01;18.30;99.90
38604;DHT22;24924;50.054;8.790;2023-08-01T19:43:27;16.90;99.90
38604;DHT22;24924;50.054;8.790;2023-08-01T19:45:53;16.80;99.90
38604;DHT22;24924;50.054;8.790;2023-08-01T19:48:19;18.20;99.90
38604;DHT22;24924;50.054;8.790;2023-08-01T19:50:45;18.60;99.90
38604;DHT22;24924;50.054;8.790;2023-08-01T20:02:56;18.60;99.90
38604;DHT22;24924;50.054;8.790;2023-08-01T20:05:22;18.30;99.90
38604;DHT22;24924;50.054;8.790;2023-08-01T20:07:47;17.80;99.90
38604;DHT22;24924;50.054;8.790;2023-08-01T20:10:16;17.10;99.90
38604;DHT22;24924;50.054;8.790;2023-08-01T20:12:41;16.90;99.90
38604;DHT22;24924;50.054;8.790;2023-08-01T20:15:07;16.90;99.90
38604;DHT22;24924;50.054;8.790;2023-08-01T20:20:00;17.80;99.90
38604;DHT22;24924;50.054;8.790;2023-08-01T20:22:26;18.80;99.90
38604;DHT22;24924;50.054;8.790;2023-08-01T20:24:54;18.00;99.90
38604;DHT22;24924;50.054;8.790;2023-08-01T20:27:20;16.30;99.90
38604;DHT22;24924;50.054;8.790;2023-08-01T20:29:45;17.80;99.90
38604;DHT22;24924;50.054;8.790;2023-08-01T20:32:11;16.00;99.90
38604;DHT22;24924;50.054;8.790;2023-08-01T20:34:37;16.90;99.90
38604;DHT22;24924;50.054;8.790;2023-08-01T20:37:03;18.20;99.90
38604;DHT22;24924;50.054;8.790;2023-08-01T20:39:29;18.00;99.90
38604;DHT22;24924;50.054;8.790;2023-08-01T20:41:55;18.20;99.90
38604;DHT22;24924;50.054;8.790;2023-08-01T20:49:14;18.60;99.90
38604;DHT22;24924;50.054;8.790;2023-08-01T20:51:39;17.70;99.90
38604;DHT22;24924;50.054;8.790;2023-08-01T20:58:57;17.60;99.90
38604;DHT22;24924;50.054;8.790;2023-08-01T21:06:16;17.80;99.90
38604;DHT22;24924;50.054;8.790;2023-08-01T21:11:12;17.40;99.90
38604;DHT22;24924;50.054;8.790;2023-08-01T21:13:41;17.70;99.90
38604;DHT22;24924;50.054;8.790;2023-08-01T21:16:12;17.90;99.90
38604;DHT22;24924;50.054;8.790;2023-08-01T21:18:38;17.50;99.90
38604;DHT22;24924;50.054;8.790;2023-08-01T21:21:06;17.20;99.90
38604;DHT22;24924;50.054;8.790;2023-08-01T21:23:31;17.50;99.90
38604;DHT22;24924;50.054;8.790;2023-08-01T21:25:58;17.50;99.90
38604;DHT22;24924;50.054;8.790;2023-08-01T21:28:24;17.90;99.90
38604;DHT22;24924;50.054;8.790;2023-08-01T21:35:41;17.80;99.90
38604;DHT22;24924;50.054;8.790;2023-08-01T21:38:07;17.90;99.90
38604;DHT22;24924;50.054;8.790;2023-08-01T21:40:37;18.40;99.90
38604;DHT22;24924;50.054;8.790;2023-08-01T21:45:31;18.30;99.90
38604;DHT22;24924;50.054;8.790;2023-08-01T21:47:57;17.90;99.90
38604;DHT22;24924;50.054;8.790;2023-08-01T21:55:15;18.50;99.90
38604;DHT22;24924;50.054;8.790;2023-08-01T21:57:40;17.80;99.90
38604;DHT22;24924;50.054;8.790;2023-08-01T22:00:06;17.80;99.90
38604;DHT22;24924;50.054;8.790;2023-08-01T22:05:02;17.60;99.90
38604;DHT22;24924;50.054;8.790;2023-08-01T22:07:28;16.90;99.90
38604;DHT22;24924;50.054;8.790;2023-08-01T22:09:56;17.40;99.90
38604;DHT22;24924;50.054;8.790;2023-08-01T22:14:48;16.90;99.90
38604;DHT22;24924;50.054;8.790;2023-08-01T22:19:42;17.20;99.90
38604;DHT22;24924;50.054;8.790;2023-08-01T22:22:08;15.30;99.90
38604;DHT22;24924;50.054;8.790;2023-08-01T22:24:34;17.90;99.90
38604;DHT22;24924;50.054;8.790;2023-08-01T22:26:59;17.70;99.90
38604;DHT22;24924;50.054;8.790;2023-08-01T22:31:51;17.50;99.90
38604;DHT22;24924;50.054;8.790;2023-08-01T22:36:44;17.30;99.90
38604;DHT22;24924;50.054;8.790;2023-08-01T22:39:12;17.00;99.90
38604;DHT22;24924;50.054;8.790;2023-08-01T22:41:37;15.20;99.90
38604;DHT22;24924;50.054;8.790;2023-08-01T22:44:03;17.30;99.90
38604;DHT22;24924;50.054;8.790;2023-08-01T22:48:55;16.10;99.90
38604;DHT22;24924;50.054;8.790;2023-08-01T22:51:21;18.10;99.90
38604;DHT22;24924;50.054;8.790;2023-08-01T22:53:48;17.00;99.90
38604;DHT22;24924;50.054;8.790;2023-08-01T22:56:15;16.80;99.90
38604;DHT22;24924;50.054;8.790;2023-08-01T23:01:09;16.90;99.90
38604;DHT22;24924;50.054;8.790;2023-08-01T23:03:36;17.50;99.90
38604;DHT22;24924;50.054;8.790;2023-08-01T23:08:29;15.60;99.90